Time;durP1;ratioP1;P1;durP2;ratioP2;P2;SDS_P1;SDS_P2;PMS_P1;PMS_P2;Temp;Humidity;BMP_temperature;BMP_pressure;BME280_temperature;BME280_humidity;BME280_pressure;Samples;Min_cycle;Max_cycle;Signal;HPM_P1;HPM_P2
2021/03/29 00:00:10;;;;;;;10.30;3.20;;;7.60;86.80;;;;;;4995793;28;20053;-88
2021/03/29 00:02:36;;;;;;;5.97;3.25;;;7.70;88.00;;;;;;5026009;28;20050;-87
2021/03/29 00:05:03;;;;;;;8.13;2.78;;;7.60;88.90;;;;;;5009000;28;20137;-87
2021/03/29 00:07:32;;;;;;;5.20;3.00;;;7.60;86.20;;;;;;5033497;28;20045;-85
2021/03/29 00:10:02;;;;;;;6.40;2.80;;;7.60;85.40;;;;;;5027117;28;20058;-87
2021/03/29 00:12:30;;;;;;;6.85;3.42;;;7.60;85.80;;;;;;5024429;28;20049;-86
2021/03/29 00:14:57;;;;;;;6.43;2.85;;;7.70;85.10;;;;;;4992916;28;20045;-85
2021/03/29 00:17:30;;;;;;;6.78;3.13;;;7.70;84.40;;;;;;5028060;28;20084;-87
2021/03/29 00:19:57;;;;;;;8.38;3.42;;;7.70;83.70;;;;;;5014023;28;20402;-87
2021/03/29 00:22:27;;;;;;;7.10;2.90;;;7.70;84.40;;;;;;5013047;28;20046;-86
2021/03/29 00:24:54;;;;;;;6.25;3.35;;;7.70;84.50;;;;;;5012516;28;20144;-86
2021/03/29 00:27:22;;;;;;;8.80;2.85;;;7.70;82.00;;;;;;5020385;28;20122;-89
2021/03/29 00:29:49;;;;;;;7.20;3.38;;;7.70;82.20;;;;;;5024137;28;20046;-85
2021/03/29 00:32:16;;;;;;;10.98;3.60;;;7.70;81.70;;;;;;4997932;28;20677;-85
2021/03/29 00:34:43;;;;;;;8.02;3.03;;;7.70;81.10;;;;;;5016051;28;20049;-88
2021/03/29 00:37:14;;;;;;;5.88;3.00;;;7.70;80.60;;;;;;5004996;28;20109;-86
2021/03/29 00:39:41;;;;;;;6.13;2.63;;;7.70;80.70;;;;;;5016454;28;20174;-87
2021/03/29 00:42:07;;;;;;;8.02;3.10;;;7.70;80.10;;;;;;5014357;28;20046;-85
2021/03/29 00:44:34;;;;;;;8.40;3.22;;;7.70;80.20;;;;;;5032349;28;20088;-86
2021/03/29 00:47:04;;;;;;;4.72;2.75;;;7.70;81.10;;;;;;5030112;28;20065;-86
2021/03/29 00:49:33;;;;;;;9.55;3.15;;;7.60;80.50;;;;;;5032540;28;20041;-87
2021/03/29 00:52:01;;;;;;;7.35;2.83;;;7.60;79.40;;;;;;5026877;28;20120;-87
2021/03/29 00:54:31;;;;;;;7.72;3.20;;;7.60;80.20;;;;;;5024944;28;20054;-86
2021/03/29 00:57:00;;;;;;;6.05;2.55;;;7.60;80.00;;;;;;5027996;28;20053;-88
2021/03/29 00:59:29;;;;;;;6.20;2.85;;;7.50;78.90;;;;;;5018530;28;20042;-86
2021/03/29 01:01:57;;;;;;;6.32;3.42;;;7.50;81.30;;;;;;5024727;28;20049;-86
2021/03/29 01:04:26;;;;;;;6.80;2.78;;;7.40;80.30;;;;;;5024117;28;20067;-85
2021/03/29 01:06:54;;;;;;;7.75;2.80;;;7.30;81.90;;;;;;5021066;28;20367;-86
2021/03/29 01:09:25;;;;;;;3.90;3.10;;;7.30;82.40;;;;;;5019105;28;20049;-86
2021/03/29 01:11:53;;;;;;;6.20;3.13;;;7.20;80.90;;;;;;5019197;28;20049;-86
2021/03/29 01:14:28;;;;;;;6.93;2.58;;;7.30;80.70;;;;;;5025949;28;20159;-85
2021/03/29 01:17:21;;;;;;;6.05;2.88;;;7.30;80.10;;;;;;5014861;28;20046;-88
2021/03/29 01:19:59;;;;;;;9.13;2.80;;;7.30;80.40;;;;;;5026571;28;20046;-86
2021/03/29 01:22:38;;;;;;;10.82;3.60;;;7.20;80.60;;;;;;5028091;28;20108;-85
2021/03/29 01:25:31;;;;;;;4.55;2.53;;;7.20;81.80;;;;;;5029950;28;20050;-86
2021/03/29 01:28:03;;;;;;;3.13;2.10;;;7.20;81.70;;;;;;5033256;28;20034;-86
2021/03/29 01:30:36;;;;;;;6.53;3.00;;;7.10;82.70;;;;;;5030924;28;20281;-85
2021/03/29 01:33:07;;;;;;;5.43;2.80;;;7.00;85.00;;;;;;5021002;28;20144;-87
2021/03/29 01:35:43;;;;;;;7.28;2.85;;;6.80;88.50;;;;;;5016764;28;20132;-88
2021/03/29 01:38:11;;;;;;;10.77;2.95;;;6.50;90.50;;;;;;5020669;28;20587;-86
2021/03/29 01:40:40;;;;;;;5.60;3.25;;;6.40;92.90;;;;;;5015745;28;20066;-85
2021/03/29 01:43:11;;;;;;;7.25;2.85;;;6.20;95.10;;;;;;5008960;28;20037;-86
2021/03/29 01:45:39;;;;;;;5.45;2.80;;;6.00;95.90;;;;;;5035460;28;20065;-86
2021/03/29 01:48:10;;;;;;;7.45;2.95;;;5.90;96.00;;;;;;5005094;28;20053;-88
2021/03/29 01:50:40;;;;;;;5.00;2.88;;;5.80;97.00;;;;;;5010131;28;20050;-85
2021/03/29 01:53:10;;;;;;;6.65;3.15;;;5.80;98.20;;;;;;5019459;28;20046;-85
2021/03/29 01:55:39;;;;;;;4.85;3.00;;;5.80;97.20;;;;;;5014715;28;20462;-85
2021/03/29 01:58:07;;;;;;;4.53;2.88;;;5.70;97.80;;;;;;5022130;28;20466;-86
2021/03/29 02:00:44;;;;;;;4.53;2.40;;;5.60;99.30;;;;;;5023947;28;20053;-86
2021/03/29 02:03:12;;;;;;;4.35;2.88;;;5.60;99.90;;;;;;5021862;28;20140;-87
2021/03/29 02:05:41;;;;;;;7.10;2.83;;;5.50;99.90;;;;;;5024060;28;20061;-87
2021/03/29 02:08:09;;;;;;;5.82;2.92;;;5.50;99.90;;;;;;5025379;28;20080;-86
2021/03/29 02:10:39;;;;;;;5.40;3.00;;;5.40;99.90;;;;;;5021287;28;20131;-86
2021/03/29 02:13:30;;;;;;;3.45;2.45;;;5.40;99.90;;;;;;5020107;28;20498;-86
2021/03/29 02:16:04;;;;;;;6.50;2.53;;;5.40;99.90;;;;;;5020275;28;20057;-85
2021/03/29 02:18:36;;;;;;;5.53;3.15;;;5.30;99.90;;;;;;5023181;28;20117;-86
2021/03/29 02:21:13;;;;;;;10.93;3.42;;;5.30;99.90;;;;;;5003771;28;20065;-87
2021/03/29 02:23:48;;;;;;;6.22;2.92;;;5.30;99.90;;;;;;5020887;28;20066;-85
2021/03/29 02:26:18;;;;;;;5.97;2.97;;;5.30;99.90;;;;;;5020368;28;20091;-86
2021/03/29 02:28:48;;;;;;;;;;;5.30;99.90;;;;;;5020358;28;20459;-86
2021/03/29 02:31:16;;;;;;;5.47;2.78;;;5.20;99.90;;;;;;5023519;28;19991;-86
2021/03/29 02:33:44;;;;;;;5.95;2.70;;;5.20;99.90;;;;;;5020213;28;20066;-87
2021/03/29 02:36:13;;;;;;;8.45;2.80;;;5.20;99.90;;;;;;5024180;28;20115;-86
2021/03/29 02:38:39;;;;;;;3.65;2.72;;;5.10;99.90;;;;;;5020766;28;20049;-86
2021/03/29 02:41:06;;;;;;;10.18;3.03;;;5.10;99.90;;;;;;5021118;28;20063;-87
2021/03/29 02:43:33;;;;;;;8.88;3.25;;;5.10;99.90;;;;;;5019998;28;20329;-86
2021/03/29 02:46:07;;;;;;;7.03;3.20;;;5.10;99.90;;;;;;5019874;28;20050;-87
2021/03/29 02:48:39;;;;;;;6.72;3.13;;;5.20;99.90;;;;;;5019890;28;20081;-85
2021/03/29 02:51:10;;;;;;;3.65;2.75;;;5.20;99.90;;;;;;5009577;28;20100;-86
2021/03/29 02:53:39;;;;;;;8.00;3.20;;;5.10;99.90;;;;;;5027668;28;20042;-85
2021/03/29 02:56:09;;;;;;;5.45;3.22;;;5.00;99.90;;;;;;5021386;28;20112;-88
2021/03/29 02:58:40;;;;;;;6.80;3.42;;;4.80;99.90;;;;;;5033966;28;20061;-87
2021/03/29 03:01:12;;;;;;;6.90;3.30;;;4.80;99.90;;;;;;5012872;28;20038;-87
2021/03/29 03:03:41;;;;;;;3.97;2.60;;;4.70;99.90;;;;;;5017726;28;20050;-86
2021/03/29 03:06:09;;;;;;;10.70;3.00;;;4.60;99.90;;;;;;5016879;28;20106;-88
2021/03/29 03:08:40;;;;;;;6.25;3.22;;;4.60;99.90;;;;;;5015817;28;20050;-85
2021/03/29 03:11:11;;;;;;;8.43;3.40;;;4.70;99.90;;;;;;5017522;28;20050;-86
2021/03/29 03:13:39;;;;;;;6.03;3.40;;;4.70;99.90;;;;;;5019656;28;20077;-87
2021/03/29 03:16:07;;;;;;;12.05;4.00;;;4.70;99.90;;;;;;5018675;28;20058;-87
2021/03/29 03:18:34;;;;;;;7.65;3.20;;;4.60;99.90;;;;;;5023534;28;20120;-86
2021/03/29 03:21:04;;;;;;;7.20;3.40;;;4.50;99.90;;;;;;5024977;28;20100;-86
2021/03/29 03:23:31;;;;;;;7.10;2.95;;;4.50;99.90;;;;;;5005308;28;20057;-87
2021/03/29 03:26:03;;;;;;;7.22;3.40;;;4.50;99.90;;;;;;5027050;28;20370;-86
2021/03/29 03:28:30;;;;;;;7.03;3.57;;;4.40;99.90;;;;;;5019540;28;20518;-85
2021/03/29 03:31:00;;;;;;;10.70;3.25;;;4.40;99.90;;;;;;5003556;28;20050;-85
2021/03/29 03:33:29;;;;;;;;;;;4.30;99.90;;;;;;5003393;28;20499;-86
2021/03/29 03:35:56;;;;;;;7.72;3.45;;;4.30;99.90;;;;;;5027493;28;20028;-84
2021/03/29 03:38:25;;;;;;;8.25;3.10;;;4.50;99.90;;;;;;5011908;28;20491;-86
2021/03/29 03:41:17;;;;;;;5.10;3.03;;;4.60;99.90;;;;;;5035004;28;20431;-87
2021/03/29 03:43:50;;;;;;;8.98;4.60;;;4.60;99.90;;;;;;5015877;28;20111;-86
2021/03/29 03:46:37;;;;;;;6.43;3.47;;;4.70;99.90;;;;;;5008561;28;20447;-85
2021/03/29 03:49:17;;;;;;;7.70;3.58;;;4.60;99.90;;;;;;5018874;28;20430;-87
2021/03/29 03:51:44;;;;;;;6.85;3.30;;;4.70;99.90;;;;;;5019457;28;20441;-87
2021/03/29 03:54:12;;;;;;;7.00;2.70;;;4.80;99.90;;;;;;5017302;28;20053;-86
2021/03/29 03:56:38;;;;;;;5.10;2.92;;;4.80;99.90;;;;;;5016962;28;20491;-86
2021/03/29 03:59:07;;;;;;;10.27;3.72;;;4.80;99.90;;;;;;5018132;28;20141;-86
2021/03/29 04:01:48;;;;;;;8.68;3.78;;;4.80;99.90;;;;;;5027487;28;20061;-86
2021/03/29 04:04:17;;;;;;;8.15;3.35;;;4.70;99.90;;;;;;5012563;28;20058;-86
2021/03/29 04:06:46;;;;;;;8.38;3.33;;;4.70;99.90;;;;;;5030233;28;20053;-84
2021/03/29 04:09:13;;;;;;;7.05;3.45;;;4.60;99.90;;;;;;5021966;28;20116;-87
2021/03/29 04:11:43;;;;;;;7.68;3.20;;;4.50;99.90;;;;;;5020444;28;20128;-86
2021/03/29 04:14:10;;;;;;;7.45;3.10;;;4.30;99.90;;;;;;5026437;28;20053;-85
2021/03/29 04:16:38;;;;;;;5.78;2.80;;;4.20;99.90;;;;;;5019278;28;20049;-86
2021/03/29 04:19:07;;;;;;;4.55;3.20;;;4.10;99.90;;;;;;5025201;28;20054;-87
2021/03/29 04:21:34;;;;;;;7.43;3.38;;;4.00;99.90;;;;;;5026939;28;20049;-86
2021/03/29 04:24:07;;;;;;;7.82;3.33;;;4.00;99.90;;;;;;5018085;28;20061;-86
2021/03/29 04:26:34;;;;;;;6.43;3.13;;;4.00;99.90;;;;;;5027166;28;20312;-86
2021/03/29 04:29:01;;;;;;;16.33;3.40;;;3.90;99.90;;;;;;5041142;28;20045;-86
2021/03/29 04:31:32;;;;;;;5.32;3.30;;;3.90;99.90;;;;;;5032241;28;20109;-86
2021/03/29 04:33:59;;;;;;;7.72;3.45;;;3.90;99.90;;;;;;5039143;28;20077;-85
2021/03/29 04:36:27;;;;;;;9.32;3.63;;;3.80;99.90;;;;;;5036485;28;20050;-85
2021/03/29 04:38:54;;;;;;;11.57;2.90;;;3.80;99.90;;;;;;5032679;28;20057;-86
2021/03/29 04:41:21;;;;;;;7.50;3.17;;;3.70;99.90;;;;;;5014502;28;20053;-84
2021/03/29 04:43:50;;;;;;;6.43;3.90;;;3.80;99.90;;;;;;5016880;28;20063;-84
2021/03/29 04:46:17;;;;;;;9.73;3.50;;;3.90;99.90;;;;;;5006572;28;20060;-84
2021/03/29 04:48:43;;;;;;;4.65;3.08;;;4.00;99.90;;;;;;5004838;28;20060;-84
2021/03/29 04:51:11;;;;;;;7.32;2.90;;;4.00;99.90;;;;;;5013382;28;20113;-84
2021/03/29 04:53:40;;;;;;;6.40;2.80;;;4.10;99.90;;;;;;5015574;28;20455;-84
2021/03/29 04:56:07;;;;;;;7.13;3.40;;;4.20;99.90;;;;;;5023581;28;20115;-84
2021/03/29 04:58:33;;;;;;;4.93;3.03;;;4.30;99.90;;;;;;5023161;28;20103;-85
2021/03/29 05:01:00;;;;;;;9.73;2.88;;;4.30;99.90;;;;;;5027416;28;20038;-84
2021/03/29 05:03:28;;;;;;;8.73;3.00;;;4.40;99.90;;;;;;5029532;28;20136;-86
2021/03/29 05:05:55;;;;;;;11.00;3.30;;;4.50;99.90;;;;;;5032933;28;20345;-84
2021/03/29 05:08:22;;;;;;;4.82;3.00;;;4.40;99.90;;;;;;5014101;28;20046;-86
2021/03/29 05:10:49;;;;;;;4.47;2.70;;;4.50;99.90;;;;;;5036511;28;20111;-86
2021/03/29 05:13:15;;;;;;;5.82;3.13;;;4.50;99.90;;;;;;5018767;28;20054;-86
2021/03/29 05:15:42;;;;;;;7.07;3.20;;;4.60;99.90;;;;;;5033996;28;20061;-88
2021/03/29 05:18:08;;;;;;;7.55;3.28;;;4.50;99.90;;;;;;5030503;28;20111;-90
2021/03/29 05:20:37;;;;;;;8.85;3.25;;;4.50;99.90;;;;;;5022851;28;20135;-85
2021/03/29 05:23:05;;;;;;;9.65;3.65;;;4.50;99.90;;;;;;5026057;28;20049;-87
2021/03/29 05:25:32;;;;;;;9.75;3.22;;;4.60;99.90;;;;;;5034588;28;20058;-86
2021/03/29 05:28:02;;;;;;;6.00;3.25;;;4.70;99.90;;;;;;5001558;28;20448;-88
2021/03/29 05:30:29;;;;;;;7.65;3.55;;;4.80;99.90;;;;;;5010331;28;20171;-88
2021/03/29 05:32:58;;;;;;;4.70;2.83;;;4.90;99.90;;;;;;5022628;28;20068;-88
2021/03/29 05:35:28;;;;;;;5.82;3.40;;;5.00;99.90;;;;;;5023492;28;20045;-87
2021/03/29 05:37:58;;;;;;;4.30;2.88;;;5.10;99.90;;;;;;5026690;28;20065;-88
2021/03/29 05:40:25;;;;;;;7.10;3.05;;;5.10;99.90;;;;;;4997499;28;20038;-87
2021/03/29 05:42:52;;;;;;;7.97;3.53;;;5.20;99.90;;;;;;5018547;28;20053;-90
2021/03/29 05:45:23;;;;;;;4.15;2.70;;;5.40;99.90;;;;;;5021428;28;20049;-88
2021/03/29 05:47:50;;;;;;;8.77;3.20;;;5.50;99.90;;;;;;4998380;28;20085;-88
2021/03/29 05:50:17;;;;;;;6.90;3.45;;;5.70;99.90;;;;;;5017633;28;20061;-90
2021/03/29 05:52:44;;;;;;;7.57;3.47;;;5.80;99.90;;;;;;5016561;28;20366;-86
2021/03/29 05:55:21;;;;;;;6.75;2.90;;;5.90;98.60;;;;;;5015084;28;20056;-86
2021/03/29 06:00:38;;;;;;;5.80;3.08;;;6.20;97.60;;;;;;5021143;28;20463;-85
2021/03/29 06:03:29;;;;;;;7.75;3.33;;;6.30;96.10;;;;;;5018879;28;20037;-89
2021/03/29 06:06:12;;;;;;;5.32;2.97;;;6.40;96.20;;;;;;5028465;28;20046;-91
2021/03/29 06:08:57;;;;;;;14.90;3.05;;;6.50;95.10;;;;;;5015174;28;20063;-91
2021/03/29 06:11:40;;;;;;;7.63;3.22;;;6.60;95.10;;;;;;5030211;28;20115;-90
2021/03/29 06:14:24;;;;;;;8.75;2.97;;;6.60;95.70;;;;;;5027611;28;20061;-89
2021/03/29 06:17:09;;;;;;;6.97;3.47;;;6.70;94.70;;;;;;5020693;28;20058;-89
2021/03/29 06:19:58;;;;;;;12.60;3.80;;;6.90;93.10;;;;;;5012598;28;20104;-85
2021/03/29 06:23:05;;;;;;;7.70;3.30;;;7.00;91.90;;;;;;5014396;28;20049;-85
2021/03/29 06:25:38;;;;;;;8.13;3.05;;;7.10;91.30;;;;;;5010243;28;20057;-86
2021/03/29 06:28:30;;;;;;;6.43;3.35;;;7.30;90.60;;;;;;5015643;28;20049;-87
2021/03/29 06:31:39;;;;;;;;;;;;;;;;;;;;;
2021/03/29 06:34:39;;;;;;;4.15;2.75;;;7.80;89.10;;;;;;5010549;28;20471;-87
2021/03/29 06:37:32;;;;;;;7.28;3.10;;;8.00;86.90;;;;;;5013678;28;20471;-89
2021/03/29 06:40:27;;;;;;;6.15;2.90;;;8.20;82.60;;;;;;5014601;28;20356;-87
2021/03/29 06:42:56;;;;;;;8.35;3.38;;;8.40;79.30;;;;;;5016540;28;20106;-88
2021/03/29 06:46:15;;;;;;;5.80;3.00;;;8.40;80.80;;;;;;5021614;28;20045;-86
2021/03/29 06:49:21;;;;;;;4.95;2.78;;;8.50;80.50;;;;;;5008605;28;20129;-86
2021/03/29 06:51:48;;;;;;;12.02;3.28;;;8.50;80.70;;;;;;5028729;28;20129;-86
2021/03/29 06:54:25;;;;;;;8.00;3.17;;;8.40;79.50;;;;;;5020498;28;20054;-87
2021/03/29 06:56:53;;;;;;;6.90;2.60;;;8.50;78.90;;;;;;5022024;28;20042;-86
2021/03/29 06:59:24;;;;;;;5.65;2.90;;;8.50;77.00;;;;;;5013311;28;20054;-86
2021/03/29 07:02:00;;;;;;;5.30;2.67;;;8.60;77.50;;;;;;5030790;28;20042;-88
2021/03/29 07:04:32;;;;;;;6.05;2.30;;;8.80;77.20;;;;;;5032497;28;20113;-86
2021/03/29 07:07:10;;;;;;;10.45;3.08;;;8.80;76.20;;;;;;5032972;28;20038;-88
2021/03/29 07:09:39;;;;;;;7.63;2.83;;;9.00;74.60;;;;;;5037331;28;20045;-89
2021/03/29 07:12:07;;;;;;;8.10;2.78;;;9.10;73.90;;;;;;5030017;28;20080;-90
2021/03/29 07:14:35;;;;;;;6.90;2.53;;;9.30;73.50;;;;;;5028497;28;20054;-90
2021/03/29 07:17:33;;;;;;;5.10;2.33;;;9.50;73.20;;;;;;5030774;28;20068;-91
2021/03/29 07:20:21;;;;;;;3.92;2.28;;;9.70;71.70;;;;;;5024357;28;20049;-90
2021/03/29 07:23:14;;;;;;;5.95;2.80;;;9.90;70.80;;;;;;5034561;28;20049;-89
2021/03/29 07:25:50;;;;;;;;;;;10.00;70.80;;;;;;5028040;28;20050;-90
2021/03/29 07:28:35;;;;;;;8.73;2.67;;;10.10;70.40;;;;;;4988261;28;19929;-89
2021/03/29 07:31:20;;;;;;;6.20;2.50;;;10.20;70.30;;;;;;4965828;28;20205;-89
2021/03/29 07:33:59;;;;;;;8.20;2.78;;;10.50;69.80;;;;;;4967289;28;20089;-87
2021/03/29 07:36:52;;;;;;;7.82;2.92;;;11.00;69.30;;;;;;4990631;28;20115;-87
2021/03/29 07:39:41;;;;;;;3.97;2.22;;;11.50;66.50;;;;;;4975721;28;20163;-89
2021/03/29 07:42:42;;;;;;;5.43;2.72;;;12.00;64.40;;;;;;4986684;28;20042;-89
2021/03/29 07:45:25;;;;;;;6.63;2.45;;;12.40;62.40;;;;;;4987790;28;20043;-88
2021/03/29 07:47:57;;;;;;;5.63;2.60;;;12.60;60.30;;;;;;4985884;28;20055;-90
2021/03/29 07:50:29;;;;;;;5.10;2.33;;;12.60;60.30;;;;;;4980999;28;20054;-89
2021/03/29 07:53:07;;;;;;;3.88;2.30;;;12.80;60.60;;;;;;4967588;28;20073;-91
2021/03/29 07:55:48;;;;;;;3.63;2.00;;;13.00;58.90;;;;;;4982243;28;20093;-90
2021/03/29 07:58:17;;;;;;;4.80;2.10;;;13.50;57.90;;;;;;4979724;28;20061;-91
2021/03/29 08:01:25;;;;;;;;;;;14.00;56.40;;;;;;5029746;28;20054;-91
2021/03/29 08:03:58;;;;;;;2.50;1.67;;;14.50;53.70;;;;;;5027029;28;19929;-89
2021/03/29 08:06:39;;;;;;;4.90;2.03;;;15.20;51.20;;;;;;5030114;28;20064;-89
2021/03/29 08:09:14;;;;;;;6.22;1.85;;;15.40;50.40;;;;;;5033631;28;20046;-92
2021/03/29 08:12:07;;;;;;;4.82;1.90;;;15.40;49.80;;;;;;5036381;28;20054;-90
2021/03/29 08:15:02;;;;;;;9.73;1.88;;;15.80;49.80;;;;;;5029079;28;20470;-89
2021/03/29 08:17:52;;;;;;;4.40;1.65;;;16.50;49.20;;;;;;5028322;28;20065;-89
2021/03/29 08:20:33;;;;;;;4.63;1.70;;;17.00;46.80;;;;;;5029279;28;20383;-90
2021/03/29 08:23:32;;;;;;;3.45;1.75;;;17.60;45.60;;;;;;5020463;28;20050;-88
2021/03/29 08:26:09;;;;;;;5.07;1.52;;;17.70;44.00;;;;;;5031463;28;20049;-88
2021/03/29 08:29:10;;;;;;;4.85;1.98;;;18.20;42.70;;;;;;5033915;28;20045;-90
2021/03/29 08:32:29;;;;;;;7.10;1.63;;;18.20;42.50;;;;;;5027630;28;20042;-91
2021/03/29 08:35:25;;;;;;;6.03;1.70;;;18.50;42.20;;;;;;5101695;23;20048;-89
2021/03/29 08:38:09;;;;;;;5.53;1.90;;;18.90;41.20;;;;;;5045053;28;20049;-91
2021/03/29 08:41:01;;;;;;;;;;;;;;;;;;;;;
2021/03/29 08:43:46;;;;;;;13.18;1.95;;;19.50;39.60;;;;;;5029967;28;20073;-91
2021/03/29 08:46:16;;;;;;;6.03;1.88;;;19.70;40.00;;;;;;5037879;28;20128;-89
2021/03/29 08:48:46;;;;;;;3.20;1.40;;;19.90;38.40;;;;;;5021060;28;20064;-87
2021/03/29 08:51:22;;;;;;;5.28;1.58;;;20.00;37.30;;;;;;5016924;28;20050;-89
2021/03/29 08:54:13;;;;;;;5.30;1.40;;;19.90;37.10;;;;;;5016260;28;20054;-87
2021/03/29 08:56:48;;;;;;;3.63;1.40;;;20.00;37.40;;;;;;5017544;28;20061;-90
2021/03/29 08:59:26;;;;;;;6.65;1.58;;;20.10;36.40;;;;;;5020206;28;20152;-91
2021/03/29 09:02:18;;;;;;;5.53;1.60;;;20.40;35.50;;;;;;5027674;28;20153;-89
2021/03/29 09:04:55;;;;;;;3.88;1.83;;;20.90;35.20;;;;;;5017487;28;20653;-88
2021/03/29 09:07:41;;;;;;;5.07;1.70;;;21.70;35.60;;;;;;5013807;28;20046;-89
2021/03/29 09:10:35;;;;;;;3.38;1.48;;;22.60;34.30;;;;;;5025826;28;20080;-89
2021/03/29 09:13:10;;;;;;;5.03;2.03;;;22.80;33.30;;;;;;5035551;28;20116;-89
2021/03/29 09:15:41;;;;;;;7.85;2.03;;;23.40;32.20;;;;;;5032385;28;20117;-89
2021/03/29 09:18:24;;;;;;;5.97;1.73;;;22.80;32.60;;;;;;5028862;28;20379;-90
2021/03/29 09:20:53;;;;;;;5.93;1.67;;;23.50;32.10;;;;;;5025381;28;20049;-87
2021/03/29 09:23:22;;;;;;;7.00;1.73;;;23.00;33.10;;;;;;5020892;28;20046;-88
2021/03/29 09:25:52;;;;;;;4.15;1.38;;;23.10;31.80;;;;;;5019211;28;20438;-88
2021/03/29 09:31:26;;;;;;;5.15;1.75;;;24.10;31.30;;;;;;5028497;28;20053;-91
2021/03/29 09:33:56;;;;;;;6.43;1.60;;;24.10;30.00;;;;;;5016355;28;20109;-89
2021/03/29 09:36:25;;;;;;;3.50;1.42;;;23.80;31.00;;;;;;4998292;28;20054;-89
2021/03/29 09:38:58;;;;;;;6.03;1.75;;;23.70;30.30;;;;;;4998780;28;20050;-89
2021/03/29 09:41:33;;;;;;;5.65;1.52;;;23.90;31.20;;;;;;5004929;28;20038;-89
2021/03/29 09:44:07;;;;;;;2.92;1.30;;;23.30;30.90;;;;;;5011030;28;20073;-92
2021/03/29 09:46:36;;;;;;;3.17;1.27;;;23.10;30.20;;;;;;5003178;28;20108;-89
2021/03/29 09:49:08;;;;;;;6.43;2.10;;;23.60;30.80;;;;;;5002954;28;20077;-90
2021/03/29 09:51:36;;;;;;;4.45;1.88;;;23.60;30.60;;;;;;5003710;28;20049;-90
2021/03/29 09:54:26;;;;;;;6.75;1.67;;;23.30;31.20;;;;;;4999672;28;20042;-87
2021/03/29 09:56:55;;;;;;;4.80;1.65;;;23.30;30.70;;;;;;4995859;28;20050;-90
2021/03/29 09:59:33;;;;;;;2.72;1.58;;;23.80;30.40;;;;;;4999786;28;20071;-90
2021/03/29 10:02:11;;;;;;;2.90;1.70;;;24.00;30.10;;;;;;5001098;28;20069;-90
2021/03/29 10:04:41;;;;;;;5.30;1.50;;;23.80;29.70;;;;;;4999313;28;20050;-91
2021/03/29 10:07:18;;;;;;;4.10;1.65;;;23.40;30.30;;;;;;4995887;28;20046;-87
2021/03/29 10:09:46;;;;;;;5.32;1.80;;;23.60;29.80;;;;;;4997655;28;20065;-90
2021/03/29 10:12:45;;;;;;;5.05;1.40;;;24.30;28.80;;;;;;4999992;28;20050;-91
2021/03/29 10:15:16;;;;;;;2.45;1.25;;;24.60;28.40;;;;;;4993642;28;20539;-89
2021/03/29 10:17:48;;;;;;;2.72;1.30;;;25.10;28.50;;;;;;5001412;28;20054;-90
2021/03/29 10:20:16;;;;;;;4.43;1.70;;;25.70;28.10;;;;;;5005591;28;20062;-92
2021/03/29 10:22:44;;;;;;;3.45;1.38;;;26.30;27.40;;;;;;5001061;28;20043;-91
2021/03/29 10:25:24;;;;;;;4.30;1.10;;;26.70;27.00;;;;;;4990954;28;20145;-91
2021/03/29 10:27:57;;;;;;;2.53;1.00;;;27.10;26.20;;;;;;5007546;28;20046;-91
2021/03/29 10:30:41;;;;;;;2.78;1.20;;;27.50;24.30;;;;;;4999238;28;20098;-92
2021/03/29 10:33:42;;;;;;;3.78;1.60;;;27.60;24.70;;;;;;5004305;28;20078;-90
2021/03/29 10:36:19;;;;;;;4.03;1.38;;;28.30;24.80;;;;;;5022130;28;20104;-90
2021/03/29 10:38:47;;;;;;;3.10;1.40;;;27.90;24.70;;;;;;5023193;28;20371;-91
2021/03/29 10:41:18;;;;;;;4.60;1.38;;;26.50;25.30;;;;;;5012247;28;20103;-91
2021/03/29 10:43:46;;;;;;;5.38;1.73;;;25.40;26.40;;;;;;5042333;28;20045;-91
2021/03/29 10:46:14;;;;;;;4.65;1.25;;;25.40;26.60;;;;;;5025476;28;20053;-90
2021/03/29 10:48:41;;;;;;;4.82;1.40;;;25.10;26.60;;;;;;5030988;28;20049;-89
2021/03/29 10:51:10;;;;;;;6.78;1.92;;;24.70;27.80;;;;;;5031246;28;20455;-91
2021/03/29 10:53:37;;;;;;;3.63;1.40;;;25.00;27.50;;;;;;5045583;28;20082;-90
2021/03/29 10:56:06;;;;;;;5.70;1.80;;;25.40;27.50;;;;;;5020383;28;20102;-91
2021/03/29 10:58:34;;;;;;;4.05;1.38;;;25.60;27.90;;;;;;5012289;28;20093;-89
2021/03/29 11:01:13;;;;;;;6.18;1.85;;;26.00;27.10;;;;;;5022412;28;20065;-90
2021/03/29 11:03:46;;;;;;;4.38;1.42;;;26.50;25.80;;;;;;5019078;28;20049;-92
2021/03/29 11:06:18;;;;;;;4.68;1.65;;;27.00;26.90;;;;;;5014742;28;20132;-90
2021/03/29 11:08:45;;;;;;;4.45;1.60;;;27.20;25.70;;;;;;5023608;28;20042;-91
2021/03/29 11:14:37;;;;;;;4.72;1.33;;;25.90;27.20;;;;;;5013746;28;20133;-90
2021/03/29 11:17:49;;;;;;;2.80;1.30;;;26.00;28.50;;;;;;5019858;28;20050;-91
2021/03/29 11:20:28;;;;;;;4.70;1.60;;;27.20;25.70;;;;;;5013860;28;20045;-88
2021/03/29 11:23:07;;;;;;;5.43;1.50;;;27.00;26.00;;;;;;5022682;28;20541;-91
2021/03/29 11:25:57;;;;;;;3.75;1.60;;;26.60;26.90;;;;;;5022707;28;20050;-91
2021/03/29 11:28:58;;;;;;;;;;;;;;;;;;;;;
2021/03/29 11:31:49;;;;;;;4.07;1.33;;;28.10;24.90;;;;;;4985574;28;20122;-91
2021/03/29 11:34:19;;;;;;;2.50;1.40;;;28.70;24.60;;;;;;4975988;28;20090;-90
2021/03/29 11:37:05;;;;;;;4.47;1.63;;;28.30;24.60;;;;;;5000960;28;20038;-90
2021/03/29 11:39:33;;;;;;;5.30;1.85;;;28.00;24.90;;;;;;4971662;28;20122;-89
2021/03/29 11:42:04;;;;;;;3.88;1.40;;;28.00;25.60;;;;;;4990232;28;20203;-91
2021/03/29 11:44:31;;;;;;;4.93;1.92;;;27.70;25.10;;;;;;4968289;28;20051;-89
2021/03/29 11:46:58;;;;;;;5.55;2.10;;;28.00;25.10;;;;;;4983654;28;20437;-89
2021/03/29 11:49:34;;;;;;;6.47;1.77;;;28.20;25.10;;;;;;4963329;28;20058;-89
2021/03/29 11:52:29;;;;;;;4.35;1.60;;;28.90;25.30;;;;;;4984869;28;20054;-91
2021/03/29 11:55:11;;;;;;;6.28;3.90;;;29.50;25.80;;;;;;4991664;28;20050;-92
2021/03/29 11:57:44;;;;;;;2.85;1.20;;;30.10;23.30;;;;;;4975479;28;20051;-89
2021/03/29 12:00:37;;;;;;;5.70;1.42;;;29.10;24.30;;;;;;5030057;28;20480;-92
2021/03/29 12:06:02;;;;;;;5.65;1.50;;;28.80;23.90;;;;;;5027725;28;20049;-91
2021/03/29 12:09:08;;;;;;;5.40;1.60;;;28.60;24.60;;;;;;5019973;28;20072;-92
2021/03/29 12:12:30;;;;;;;3.95;1.45;;;29.40;25.30;;;;;;5019176;28;20046;-92
2021/03/29 12:15:26;;;;;;;2.72;1.30;;;29.90;24.10;;;;;;5015510;28;20060;-91
2021/03/29 12:17:55;;;;;;;4.53;1.33;;;30.70;22.90;;;;;;5023331;28;20053;-91
2021/03/29 12:20:21;;;;;;;4.43;1.48;;;30.60;22.30;;;;;;5020082;28;20127;-92
2021/03/29 12:22:53;;;;;;;5.68;1.70;;;30.60;23.80;;;;;;5018488;28;20080;-90
2021/03/29 12:25:24;;;;;;;3.72;1.52;;;31.00;24.00;;;;;;5009965;28;20065;-93
2021/03/29 12:27:54;;;;;;;3.38;1.30;;;31.00;24.20;;;;;;5016701;28;20081;-89
2021/03/29 12:30:30;;;;;;;9.85;2.38;;;31.00;24.50;;;;;;5033107;28;20045;-90
2021/03/29 12:33:11;;;;;;;3.35;1.50;;;31.30;22.30;;;;;;5049373;28;20049;-91
2021/03/29 12:36:00;;;;;;;5.80;1.80;;;30.40;22.20;;;;;;5031001;28;20054;-92
2021/03/29 12:38:34;;;;;;;2.78;1.25;;;30.60;22.60;;;;;;5032075;28;20045;-90
2021/03/29 12:41:15;;;;;;;;;;;;;;;;;;;;;
2021/03/29 12:44:11;;;;;;;9.50;1.83;;;30.50;22.90;;;;;;4986643;28;21353;-92
2021/03/29 12:46:46;;;;;;;3.58;1.25;;;30.90;24.30;;;;;;4992808;28;20210;-90
2021/03/29 12:49:21;;;;;;;3.58;1.50;;;30.70;22.50;;;;;;4974495;28;20460;-91
2021/03/29 12:52:34;;;;;;;;;;;;;;;;;;;;;
2021/03/29 12:58:53;;;;;;;7.03;1.45;;;31.80;22.80;;;;;;4901993;29;20372;-91
2021/03/29 13:01:38;;;;;;;4.70;1.70;;;31.90;23.20;;;;;;4923587;28;20054;-92
2021/03/29 13:04:20;;;;;;;2.65;1.02;;;32.00;23.40;;;;;;4944061;29;20467;-91
2021/03/29 13:13:26;;;;;;;2.50;1.27;;;31.80;21.40;;;;;;4911610;29;20063;-89
2021/03/29 13:16:02;;;;;;;4.22;1.60;;;31.20;22.20;;;;;;4897043;29;20060;-89
2021/03/29 13:18:28;;;;;;;4.75;1.67;;;31.60;22.40;;;;;;4932570;29;20048;-89
2021/03/29 13:21:09;;;;;;;3.60;1.52;;;32.00;22.20;;;;;;4920630;29;20055;-91
2021/03/29 13:23:58;;;;;;;5.97;1.48;;;32.30;22.00;;;;;;4926109;29;20052;-92
2021/03/29 13:26:46;;;;;;;2.88;1.20;;;32.40;21.10;;;;;;4892830;29;20052;-91
2021/03/29 13:29:25;;;;;;;5.00;1.65;;;32.50;21.60;;;;;;4944377;28;20070;-89
2021/03/29 13:32:09;;;;;;;;;;;;;;;;;;;;;
2021/03/29 13:35:28;;;;;;;3.55;1.40;;;31.00;22.90;;;;;;4970766;28;20051;-92
2021/03/29 13:37:58;;;;;;;5.13;1.25;;;30.70;21.90;;;;;;4968698;28;20054;-93
2021/03/29 13:40:39;;;;;;;3.83;1.60;;;30.20;22.90;;;;;;4985844;28;20047;-90
2021/03/29 13:43:10;;;;;;;4.35;1.52;;;30.40;22.40;;;;;;4967879;28;20058;-92
2021/03/29 13:45:59;;;;;;;4.80;1.67;;;30.90;23.90;;;;;;4982350;28;20066;-90
2021/03/29 13:48:33;;;;;;;3.67;1.42;;;31.00;21.70;;;;;;4977645;28;20050;-92
2021/03/29 13:51:19;;;;;;;7.65;1.67;;;31.30;22.00;;;;;;5004990;28;20103;-90
2021/03/29 13:54:18;;;;;;;3.33;1.40;;;31.30;22.70;;;;;;5017285;28;20120;-91
2021/03/29 13:57:08;;;;;;;3.72;1.45;;;31.60;21.40;;;;;;5034387;28;20073;-91
2021/03/29 13:59:42;;;;;;;4.60;1.40;;;30.90;22.20;;;;;;5015580;28;20050;-91
2021/03/29 14:02:15;;;;;;;2.83;1.35;;;31.50;22.80;;;;;;5024376;28;20073;-89
2021/03/29 14:04:46;;;;;;;3.58;1.60;;;32.00;21.20;;;;;;5046768;28;20073;-90
2021/03/29 14:07:37;;;;;;;9.32;1.60;;;32.30;20.90;;;;;;5039620;28;20151;-88